Terminal Aerodrome Forecast
Issued by NWS

Home | Current Version | Previous Version | Text Only | Print | Product List | Glossary On
Versions: 1 2 3 4 5 6 7 8 9 10 11 12 13 14 15 16 17 18 19 20 21 22 23 24 25 26 27 28 29 30
738
FTUS41 KOKX 171333 AAA
TAFGON
TAF AMD
KGON 171333Z 1714/1812 VRB02KT P6SM SCT050 OVC070
     FM171700 09006KT 6SM -RA OVC050
     FM171900 09008KT 5SM -RA BR SCT015 OVC025
     FM172300 08011KT 2SM -RA BR OVC008
     FM180900 04010KT 1 1/2SM BR OVC004=

USA.gov is the U.S. government's official web portal to all federal, state and local government web resources and services.